Cranleigh, United Kingdom
Current Conditions -  °F | °C
As of 3:50 PM on Wednesday 28 Jan 2015 (Local Time) from EGKK Reporting Station
Scattered Clouds Scattered Clouds  
Wind Chill:   Ceiling: Unl
Heat Index:   Visibility: 6mi
Dew Point: -2°   Wind: 22mph
Humidity: 57%   Direction: 280°W
Pressure: 29.62"   Gusts: NA
Location:  51.14°N, 0.48°W
Report Text: EGKK 281550Z 28019KT 9999 FEW040 SCT047 06/M02 Q1003
Loading
Personal Weather Stations






























Interactive Weather Map New forecast layout! Learn more

10-Day Weather Forecast

Advertisements
Track Severe Weather on mobile